createdAt,value
2022-08-30T00:01:03.972Z,1.90
2022-08-30T00:02:06.745Z,1.90
2022-08-30T00:03:12.251Z,2.05
2022-08-30T00:04:14.640Z,2.42
2022-08-30T00:05:17.685Z,1.90
2022-08-30T00:06:20.872Z,1.90
2022-08-30T00:07:23.394Z,2.35
2022-08-30T00:08:25.628Z,2.25
2022-08-30T00:09:27.910Z,2.30
2022-08-30T00:10:30.371Z,2.70
2022-08-30T00:11:33.611Z,2.08
2022-08-30T00:12:36.470Z,2.38
2022-08-30T00:13:42.045Z,1.80
2022-08-30T00:14:44.303Z,2.05
2022-08-30T00:15:47.259Z,2.10
2022-08-30T00:16:50.808Z,1.90
2022-08-30T00:17:54.037Z,2.28
2022-08-30T00:18:56.913Z,2.13
2022-08-30T00:20:00.311Z,2.50
2022-08-30T00:21:04.856Z,2.17
2022-08-30T00:22:07.245Z,2.03
2022-08-30T00:23:09.584Z,2.28
2022-08-30T00:24:11.846Z,2.25
2022-08-30T00:25:15.903Z,2.40
2022-08-30T00:26:18.321Z,2.20
2022-08-30T00:27:20.584Z,2.15
2022-08-30T00:28:22.946Z,2.30
2022-08-30T00:29:25.263Z,1.95
2022-08-30T00:30:27.554Z,2.03
2022-08-30T00:31:29.855Z,2.28
2022-08-30T00:32:32.273Z,2.15
2022-08-30T00:33:34.800Z,2.30
2022-08-30T00:34:37.014Z,1.90
2022-08-30T00:35:39.951Z,2.20
2022-08-30T00:36:44.046Z,2.15
2022-08-30T00:37:47.667Z,2.03
2022-08-30T00:38:49.973Z,2.00
2022-08-30T00:39:52.293Z,2.20
2022-08-30T00:40:55.117Z,2.33
2022-08-30T00:41:57.322Z,2.03
2022-08-30T00:43:05.626Z,2.28
2022-08-30T00:44:08.334Z,2.30
2022-08-30T00:45:12.694Z,2.10
2022-08-30T00:46:15.245Z,2.13
2022-08-30T00:47:18.663Z,2.17
2022-08-30T00:48:21.074Z,2.20
2022-08-30T00:49:24.439Z,1.90
2022-08-30T00:50:35.926Z,1.95
2022-08-30T00:51:39.429Z,2.00
2022-08-30T00:52:46.335Z,2.05
2022-08-30T00:53:53.669Z,2.10
2022-08-30T00:54:55.987Z,1.92
2022-08-30T00:56:00.332Z,2.00
2022-08-30T00:57:04.071Z,2.40
2022-08-30T00:58:09.917Z,2.13
2022-08-30T00:59:12.280Z,1.90
2022-08-30T01:00:16.226Z,2.30
2022-08-30T01:01:19.423Z,2.33
2022-08-30T01:02:23.701Z,2.20
2022-08-30T01:03:28.587Z,2.33
2022-08-30T01:04:33.450Z,2.05
2022-08-30T01:05:39.614Z,2.40
2022-08-30T01:06:41.905Z,2.17
2022-08-30T01:07:44.275Z,2.13
2022-08-30T01:08:47.980Z,2.40
2022-08-30T01:09:50.965Z,2.60
2022-08-30T01:10:54.810Z,2.00
2022-08-30T01:11:57.754Z,2.35
2022-08-30T01:13:00.816Z,2.25
2022-08-30T01:14:04.849Z,2.47
2022-08-30T01:15:09.357Z,2.72
2022-08-30T01:16:11.671Z,2.30
2022-08-30T01:17:15.265Z,2.22
2022-08-30T01:18:22.385Z,2.22
2022-08-30T01:19:38.544Z,2.20
2022-08-30T01:20:51.881Z,2.33
2022-08-30T01:22:00.133Z,2.38
2022-08-30T01:23:16.433Z,2.75
2022-08-30T01:24:20.635Z,2.08
2022-08-30T01:25:27.573Z,2.08
2022-08-30T01:26:31.919Z,2.33
2022-08-30T01:27:37.558Z,2.45
2022-08-30T01:28:40.389Z,2.10
2022-08-30T01:29:45.030Z,2.35
2022-08-30T01:30:47.630Z,2.20
2022-08-30T01:31:50.133Z,2.00
2022-08-30T01:32:58.285Z,2.03
2022-08-30T01:34:01.835Z,2.10
2022-08-30T01:35:04.321Z,2.42
2022-08-30T01:36:13.061Z,2.17
2022-08-30T01:37:34.118Z,2.30
2022-08-30T01:38:41.549Z,2.72
2022-08-30T01:39:46.351Z,2.08
2022-08-30T01:40:49.951Z,2.72
2022-08-30T01:41:52.782Z,2.42
2022-08-30T01:42:55.127Z,2.50
2022-08-30T01:43:59.762Z,2.60
2022-08-30T01:45:02.251Z,1.92
2022-08-30T01:46:04.985Z,2.40
2022-08-30T01:47:07.495Z,2.40
2022-08-30T01:48:12.721Z,2.38
2022-08-30T01:49:18.969Z,2.50
2022-08-30T01:50:30.217Z,2.35
2022-08-30T01:51:33.057Z,2.13
2022-08-30T01:52:35.425Z,2.92
2022-08-30T01:53:39.396Z,2.20
2022-08-30T01:54:43.865Z,2.45
2022-08-30T01:55:46.139Z,2.40
2022-08-30T01:56:48.411Z,2.50
2022-08-30T01:57:51.020Z,2.40
2022-08-30T01:58:53.994Z,2.60
2022-08-30T01:59:56.262Z,2.35
2022-08-30T02:00:58.629Z,2.60
2022-08-30T02:02:00.858Z,2.40
2022-08-30T02:03:03.344Z,2.50
2022-08-30T02:04:07.607Z,2.72
2022-08-30T02:05:10.178Z,2.30
2022-08-30T02:06:15.439Z,2.45
2022-08-30T02:07:17.657Z,2.55
2022-08-30T02:08:19.935Z,2.53
2022-08-30T02:09:22.116Z,2.35
2022-08-30T02:10:24.506Z,2.78
2022-08-30T02:11:26.803Z,2.35
2022-08-30T02:12:30.296Z,2.60
2022-08-30T02:13:33.715Z,2.50
2022-08-30T02:14:37.372Z,2.92
2022-08-30T02:15:41.779Z,2.20
2022-08-30T02:16:44.363Z,2.80
2022-08-30T02:17:46.790Z,2.33
2022-08-30T02:18:50.123Z,2.92
2022-08-30T02:19:52.404Z,3.10
2022-08-30T02:20:54.736Z,2.60
2022-08-30T02:21:57.040Z,2.40
2022-08-30T02:23:01.374Z,2.60
2022-08-30T02:24:04.135Z,2.35
2022-08-30T02:25:09.824Z,2.67
2022-08-30T02:26:23.627Z,2.65
2022-08-30T02:27:26.734Z,2.45
2022-08-30T02:28:29.141Z,2.88
2022-08-30T02:29:31.537Z,2.40
2022-08-30T02:30:34.481Z,2.55
2022-08-30T02:31:36.808Z,2.88
2022-08-30T02:32:39.199Z,2.95
2022-08-30T02:33:41.395Z,2.72
2022-08-30T02:34:44.611Z,2.78
2022-08-30T02:35:47.020Z,2.58
2022-08-30T02:36:49.346Z,2.45
2022-08-30T02:37:52.143Z,2.58
2022-08-30T02:38:54.410Z,2.70
2022-08-30T02:39:56.687Z,2.30
2022-08-30T02:40:59.047Z,2.80
2022-08-30T02:42:01.687Z,2.78
2022-08-30T02:43:03.925Z,2.50
2022-08-30T02:44:07.545Z,2.72
2022-08-30T02:45:10.319Z,2.50
2022-08-30T02:46:12.983Z,2.72
2022-08-30T02:47:15.262Z,3.10
2022-08-30T02:48:17.532Z,2.42
2022-08-30T02:49:35.202Z,2.58
2022-08-30T02:50:45.998Z,3.25
2022-08-30T02:51:48.258Z,2.72
2022-08-30T02:52:50.610Z,2.72
2022-08-30T02:53:52.837Z,3.08
2022-08-30T02:54:55.281Z,2.80
2022-08-30T02:55:57.939Z,2.63
2022-08-30T02:57:04.593Z,2.40
2022-08-30T02:58:08.014Z,2.58
2022-08-30T02:59:10.349Z,2.75
2022-08-30T03:00:17.293Z,2.67
2022-08-30T03:01:19.804Z,2.92
2022-08-30T03:02:22.197Z,2.80
2022-08-30T03:03:25.327Z,3.10
2022-08-30T03:04:27.775Z,2.40
2022-08-30T03:05:32.940Z,3.13
2022-08-30T03:06:35.733Z,3.22
2022-08-30T03:07:38.118Z,2.75
2022-08-30T03:08:41.295Z,3.22
2022-08-30T03:09:43.597Z,2.60
2022-08-30T03:10:46.029Z,3.30
2022-08-30T03:11:48.267Z,3.28
2022-08-30T03:12:50.689Z,3.17
2022-08-30T03:13:53.000Z,3.25
2022-08-30T03:14:55.352Z,2.78
2022-08-30T03:15:57.650Z,2.95
2022-08-30T03:16:59.858Z,3.08
2022-08-30T03:18:02.330Z,3.33
2022-08-30T03:19:04.770Z,3.03
2022-08-30T03:20:08.838Z,2.70
2022-08-30T03:21:13.121Z,2.80
2022-08-30T03:22:15.807Z,2.85
2022-08-30T03:23:21.645Z,3.30
2022-08-30T03:24:24.707Z,2.60
2022-08-30T03:25:27.491Z,2.95
2022-08-30T03:26:29.741Z,2.80
2022-08-30T03:27:32.018Z,3.00
2022-08-30T03:28:34.657Z,2.78
2022-08-30T03:29:36.980Z,2.80
2022-08-30T03:30:39.397Z,2.90
2022-08-30T03:31:53.636Z,3.00
2022-08-30T03:32:56.205Z,3.08
2022-08-30T03:33:58.430Z,2.70
2022-08-30T03:35:01.005Z,2.97
2022-08-30T03:36:04.004Z,3.00
2022-08-30T03:37:06.730Z,3.10
2022-08-30T03:38:08.989Z,3.13
2022-08-30T03:39:12.524Z,2.80
2022-08-30T03:40:20.010Z,3.30
2022-08-30T03:41:22.369Z,2.90
2022-08-30T03:42:25.461Z,3.22
2022-08-30T03:43:27.701Z,3.45
2022-08-30T03:44:31.569Z,2.70
2022-08-30T03:45:33.880Z,3.10
2022-08-30T03:46:37.628Z,2.97
2022-08-30T03:47:41.066Z,3.13
2022-08-30T03:48:44.432Z,3.10
2022-08-30T03:49:46.660Z,3.50
2022-08-30T03:50:48.916Z,3.53
2022-08-30T03:51:51.855Z,3.40
2022-08-30T03:52:54.250Z,3.35
2022-08-30T03:53:56.495Z,3.15
2022-08-30T03:55:00.658Z,3.40
2022-08-30T03:56:03.690Z,3.10
2022-08-30T03:57:06.757Z,3.17
2022-08-30T03:58:09.057Z,3.10
2022-08-30T03:59:11.473Z,3.20
2022-08-30T04:00:16.272Z,3.30
2022-08-30T04:01:18.880Z,3.10
2022-08-30T04:02:21.236Z,3.22
2022-08-30T04:03:25.947Z,3.00
2022-08-30T04:04:28.264Z,3.08
2022-08-30T04:05:30.575Z,3.15
2022-08-30T04:06:33.250Z,3.10
2022-08-30T04:07:35.596Z,3.42
2022-08-30T04:08:38.862Z,2.95
2022-08-30T04:09:41.772Z,2.92
2022-08-30T04:10:44.162Z,2.75
2022-08-30T04:11:46.588Z,3.17
2022-08-30T04:12:50.315Z,3.25
2022-08-30T04:13:53.307Z,3.13
2022-08-30T04:14:55.661Z,2.97
2022-08-30T04:15:57.977Z,3.45
2022-08-30T04:17:00.238Z,3.17
2022-08-30T04:18:02.519Z,3.22
2022-08-30T04:19:04.873Z,3.00
2022-08-30T04:20:07.937Z,3.65
2022-08-30T04:21:13.898Z,2.90
2022-08-30T04:22:16.616Z,3.03
2022-08-30T04:23:19.594Z,3.35
2022-08-30T04:24:21.870Z,4.10
2022-08-30T04:25:24.277Z,4.30
2022-08-30T04:26:27.634Z,5.15
2022-08-30T04:27:32.321Z,4.00
2022-08-30T04:28:35.895Z,3.40
2022-08-30T04:29:38.542Z,3.35
2022-08-30T04:30:43.413Z,3.40
2022-08-30T04:31:46.276Z,3.60
2022-08-30T04:32:48.939Z,3.65
2022-08-30T04:33:51.275Z,3.63
2022-08-30T04:34:58.279Z,3.70
2022-08-30T04:36:06.074Z,3.63
2022-08-30T04:37:09.810Z,3.65
2022-08-30T04:38:13.739Z,3.40
2022-08-30T04:39:17.897Z,3.50
2022-08-30T04:40:20.479Z,3.78
2022-08-30T04:41:24.300Z,3.60
2022-08-30T04:42:31.996Z,3.53
2022-08-30T04:43:34.303Z,3.40
2022-08-30T04:44:36.529Z,3.28
2022-08-30T04:45:40.056Z,3.28
2022-08-30T04:46:44.531Z,3.75
2022-08-30T04:47:47.372Z,3.08
2022-08-30T04:48:49.913Z,3.33
2022-08-30T04:49:52.986Z,3.55
2022-08-30T04:50:55.258Z,3.15
2022-08-30T04:51:57.520Z,3.15
2022-08-30T04:52:59.753Z,3.15
2022-08-30T04:54:02.164Z,4.03
2022-08-30T04:55:06.739Z,3.42
2022-08-30T04:56:22.322Z,3.50
2022-08-30T04:57:25.657Z,3.50
2022-08-30T04:58:27.936Z,3.67
2022-08-30T04:59:30.178Z,3.85
2022-08-30T05:00:32.591Z,3.65
2022-08-30T05:01:44.666Z,3.70
2022-08-30T05:02:48.962Z,3.72
2022-08-30T05:03:53.519Z,3.97
2022-08-30T05:05:14.290Z,3.58
2022-08-30T05:06:17.222Z,3.65
2022-08-30T05:07:19.480Z,3.33
2022-08-30T05:08:24.814Z,3.13
2022-08-30T05:09:27.222Z,3.70
2022-08-30T05:10:29.678Z,3.38
2022-08-30T05:11:32.004Z,3.50
2022-08-30T05:12:34.560Z,3.17
2022-08-30T05:13:37.401Z,3.67
2022-08-30T05:14:39.707Z,4.15
2022-08-30T05:15:42.277Z,3.58
2022-08-30T05:16:45.587Z,3.72
2022-08-30T05:17:48.298Z,3.58
2022-08-30T05:18:53.816Z,3.80
2022-08-30T05:19:56.062Z,3.40
2022-08-30T05:21:12.743Z,3.55
2022-08-30T05:22:14.953Z,3.28
2022-08-30T05:23:17.479Z,3.65
2022-08-30T05:24:20.692Z,3.17
2022-08-30T05:25:26.561Z,3.22
2022-08-30T05:26:31.955Z,3.30
2022-08-30T05:27:34.443Z,3.05
2022-08-30T05:28:40.315Z,3.20
2022-08-30T05:29:42.564Z,3.17
2022-08-30T05:30:44.849Z,2.70
2022-08-30T05:31:47.233Z,3.17
2022-08-30T05:32:50.108Z,2.88
2022-08-30T05:33:53.739Z,3.42
2022-08-30T05:34:55.956Z,3.33
2022-08-30T05:35:58.539Z,2.60
2022-08-30T05:37:02.848Z,2.92
2022-08-30T05:38:05.099Z,3.10
2022-08-30T05:39:10.450Z,3.28
2022-08-30T05:40:17.419Z,2.92
2022-08-30T05:41:22.046Z,3.03
2022-08-30T05:42:24.298Z,2.90
2022-08-30T05:43:26.849Z,3.17
2022-08-30T05:44:32.396Z,2.95
2022-08-30T05:45:34.713Z,3.00
2022-08-30T05:46:37.478Z,3.50
2022-08-30T05:47:39.956Z,3.25
2022-08-30T05:48:42.253Z,3.38
2022-08-30T05:49:44.613Z,3.15
2022-08-30T05:50:46.852Z,3.33
2022-08-30T05:51:49.221Z,3.20
2022-08-30T05:52:51.476Z,3.08
2022-08-30T05:53:57.106Z,3.20
2022-08-30T05:54:59.521Z,2.50
2022-08-30T05:56:04.775Z,3.40
2022-08-30T05:57:08.156Z,3.20
2022-08-30T05:58:10.370Z,2.92
2022-08-30T05:59:14.266Z,2.70
2022-08-30T06:00:18.122Z,3.08
2022-08-30T06:01:26.208Z,3.25
2022-08-30T06:02:28.528Z,3.10
2022-08-30T06:03:32.899Z,3.08
2022-08-30T06:04:36.686Z,3.10
2022-08-30T06:05:39.010Z,3.20
2022-08-30T06:06:43.514Z,2.67
2022-08-30T06:07:45.767Z,3.20
2022-08-30T06:08:48.890Z,2.70
2022-08-30T06:09:51.211Z,3.00
2022-08-30T06:10:53.676Z,2.42
2022-08-30T06:11:56.060Z,2.97
2022-08-30T06:12:58.807Z,2.80
2022-08-30T06:14:01.736Z,2.70
2022-08-30T06:15:04.358Z,3.00
2022-08-30T06:16:07.021Z,3.00
2022-08-30T06:17:09.378Z,3.05
2022-08-30T06:18:12.843Z,2.35
2022-08-30T06:19:16.274Z,3.20
2022-08-30T06:20:20.153Z,3.13
2022-08-30T06:21:30.889Z,2.53
2022-08-30T06:22:33.096Z,2.75
2022-08-30T06:23:35.382Z,2.47
2022-08-30T06:24:56.289Z,2.92
2022-08-30T06:26:07.385Z,2.90
2022-08-30T06:27:10.851Z,2.78
2022-08-30T06:28:13.298Z,2.67
2022-08-30T06:29:18.164Z,2.95
2022-08-30T06:30:20.473Z,3.30
2022-08-30T06:31:24.541Z,3.00
2022-08-30T06:32:26.888Z,3.38
2022-08-30T06:33:29.142Z,3.15
2022-08-30T06:34:31.331Z,3.22
2022-08-30T06:35:38.077Z,2.83
2022-08-30T06:36:44.612Z,2.88
2022-08-30T06:37:46.790Z,2.97
2022-08-30T06:38:57.026Z,3.10
2022-08-30T06:40:00.595Z,2.70
2022-08-30T06:45:44.965Z,3.20
2022-08-30T06:46:47.936Z,3.30
2022-08-30T06:47:50.325Z,3.30
2022-08-30T06:48:53.464Z,3.03
2022-08-30T06:49:59.215Z,2.80
2022-08-30T06:51:01.616Z,2.97
2022-08-30T06:52:05.175Z,2.78
2022-08-30T06:53:08.538Z,3.15
2022-08-30T06:54:12.352Z,3.15
2022-08-30T06:55:16.689Z,3.13
2022-08-30T06:56:19.878Z,3.38
2022-08-30T06:57:22.159Z,2.90
2022-08-30T06:58:24.807Z,3.10
2022-08-30T06:59:27.309Z,3.00
2022-08-30T07:00:30.135Z,3.30
2022-08-30T07:01:32.738Z,3.22
2022-08-30T07:02:44.248Z,3.00
2022-08-30T07:03:46.882Z,3.25
2022-08-30T07:04:49.527Z,3.45
2022-08-30T07:05:51.849Z,3.20
2022-08-30T07:06:54.365Z,3.13
2022-08-30T07:07:56.758Z,3.28
2022-08-30T07:08:59.190Z,3.15
2022-08-30T07:10:05.744Z,2.90
2022-08-30T07:11:08.629Z,3.17
2022-08-30T07:12:12.099Z,3.10
2022-08-30T07:13:14.755Z,3.13
2022-08-30T07:14:17.643Z,3.30
2022-08-30T07:15:22.893Z,3.28
2022-08-30T07:16:25.791Z,3.17
2022-08-30T07:17:47.064Z,3.40
2022-08-30T07:18:54.693Z,3.55
2022-08-30T07:19:57.642Z,3.42
2022-08-30T07:21:07.696Z,3.45
2022-08-30T07:22:10.258Z,2.97
2022-08-30T07:23:13.125Z,3.33
2022-08-30T07:24:16.295Z,3.42
2022-08-30T07:25:19.971Z,3.13
2022-08-30T07:26:35.768Z,3.42
2022-08-30T07:27:38.477Z,3.28
2022-08-30T07:28:44.072Z,3.28
2022-08-30T07:29:48.547Z,3.53
2022-08-30T07:30:51.098Z,2.95
2022-08-30T07:31:53.585Z,3.00
2022-08-30T07:32:56.183Z,3.05
2022-08-30T07:33:58.952Z,3.05
2022-08-30T07:35:02.149Z,3.30
2022-08-30T07:36:05.493Z,3.28
2022-08-30T07:37:08.333Z,3.75
2022-08-30T07:38:15.016Z,3.30
2022-08-30T07:39:17.527Z,3.00
2022-08-30T07:40:20.485Z,3.35
2022-08-30T07:41:29.414Z,3.20
2022-08-30T07:42:31.869Z,3.22
2022-08-30T07:43:35.650Z,3.40
2022-08-30T07:44:37.973Z,3.60
2022-08-30T07:45:40.343Z,3.60
2022-08-30T07:46:42.786Z,3.40
2022-08-30T07:47:46.749Z,3.63
2022-08-30T07:48:50.263Z,3.58
2022-08-30T07:49:53.090Z,3.67
2022-08-30T07:50:59.013Z,3.58
2022-08-30T07:52:04.384Z,3.30
2022-08-30T07:53:09.358Z,3.42
2022-08-30T07:54:14.695Z,3.75
2022-08-30T07:55:18.132Z,3.60
2022-08-30T07:56:21.596Z,3.80
2022-08-30T07:57:24.611Z,3.58
2022-08-30T07:58:27.152Z,3.30
2022-08-30T07:59:31.867Z,3.50
2022-08-30T08:00:36.637Z,3.70
2022-08-30T08:01:39.041Z,3.67
2022-08-30T08:02:42.427Z,3.67
2022-08-30T08:03:46.640Z,3.40
2022-08-30T08:04:48.959Z,3.75
2022-08-30T08:05:53.077Z,3.90
2022-08-30T08:06:56.152Z,3.40
2022-08-30T08:07:58.370Z,3.90
2022-08-30T08:09:02.334Z,3.75
2022-08-30T08:10:05.161Z,3.58
2022-08-30T08:11:16.249Z,3.83
2022-08-30T08:12:18.913Z,3.47
2022-08-30T08:13:21.284Z,3.97
2022-08-30T08:14:23.709Z,3.53
2022-08-30T08:15:26.662Z,3.55
2022-08-30T08:16:31.021Z,3.40
2022-08-30T08:17:34.036Z,3.47
2022-08-30T08:18:36.906Z,3.65
2022-08-30T08:19:39.804Z,3.38
2022-08-30T08:20:42.952Z,3.42
2022-08-30T08:21:46.067Z,3.40
2022-08-30T08:22:48.916Z,3.92
2022-08-30T08:23:51.737Z,3.80
2022-08-30T08:24:54.239Z,4.10
2022-08-30T08:25:56.808Z,3.85
2022-08-30T08:26:59.149Z,4.07
2022-08-30T08:28:02.050Z,3.83
2022-08-30T08:29:07.524Z,4.10
2022-08-30T08:30:10.468Z,4.00
2022-08-30T08:31:34.274Z,3.40
2022-08-30T08:32:37.108Z,3.85
2022-08-30T08:33:39.413Z,3.92
2022-08-30T08:34:42.004Z,4.00
2022-08-30T08:35:45.755Z,3.40
2022-08-30T08:36:48.963Z,3.55
2022-08-30T08:37:51.250Z,3.97
2022-08-30T08:38:53.801Z,4.00
2022-08-30T08:39:56.091Z,3.70
2022-08-30T08:41:35.835Z,3.70
2022-08-30T08:43:05.257Z,3.90
2022-08-30T08:44:16.237Z,3.95
2022-08-30T08:45:47.467Z,3.97
2022-08-30T08:47:31.876Z,3.83
2022-08-30T08:48:59.926Z,3.70
2022-08-30T08:50:07.048Z,3.80
2022-08-30T08:51:30.529Z,3.85
2022-08-30T08:53:03.862Z,3.55
2022-08-30T08:54:20.133Z,3.42
2022-08-30T08:55:24.157Z,3.47
2022-08-30T08:56:26.710Z,3.78
2022-08-30T08:57:37.198Z,3.63
2022-08-30T08:58:47.648Z,3.45
2022-08-30T08:59:54.098Z,3.20
2022-08-30T09:00:58.170Z,4.82
2022-08-30T09:02:03.133Z,3.55
2022-08-30T09:03:05.574Z,3.80
2022-08-30T09:04:15.785Z,3.97
2022-08-30T09:05:22.342Z,3.80
2022-08-30T09:06:38.450Z,3.65
2022-08-30T09:07:57.212Z,4.22
2022-08-30T09:08:59.651Z,4.03
2022-08-30T09:10:02.520Z,3.63
2022-08-30T09:11:11.098Z,4.15
2022-08-30T09:12:13.812Z,3.58
2022-08-30T09:13:16.991Z,3.63
2022-08-30T09:14:34.793Z,3.50
2022-08-30T09:15:37.158Z,3.67
2022-08-30T09:17:24.309Z,3.60
2022-08-30T09:18:56.397Z,3.25
2022-08-30T09:20:00.466Z,3.60
2022-08-30T09:21:06.998Z,3.60
2022-08-30T09:22:31.923Z,3.38
2022-08-30T09:23:34.528Z,3.63
2022-08-30T09:24:46.233Z,3.30
2022-08-30T09:25:55.613Z,3.63
2022-08-30T09:27:23.977Z,3.42
2022-08-30T09:28:49.457Z,4.55
2022-08-30T09:29:56.386Z,3.58
2022-08-30T09:31:26.236Z,3.35
2022-08-30T09:32:35.467Z,3.42
2022-08-30T09:33:38.007Z,3.88
2022-08-30T09:34:43.525Z,3.80
2022-08-30T09:35:52.074Z,3.08
2022-08-30T09:36:56.501Z,3.70
2022-08-30T09:38:05.908Z,3.20
2022-08-30T09:39:33.382Z,3.15
2022-08-30T09:40:45.572Z,3.60
2022-08-30T09:41:50.335Z,3.30
2022-08-30T09:43:05.083Z,3.55
2022-08-30T09:44:14.562Z,3.22
2022-08-30T09:45:30.325Z,3.28
2022-08-30T09:46:32.756Z,2.95
2022-08-30T09:47:35.398Z,3.10
2022-08-30T09:48:42.273Z,3.25
2022-08-30T09:49:44.772Z,3.10
2022-08-30T09:50:55.021Z,3.35
2022-08-30T09:52:16.799Z,3.40
2022-08-30T09:53:28.237Z,3.30
2022-08-30T09:54:55.194Z,3.03
2022-08-30T09:56:12.422Z,3.53
2022-08-30T09:57:33.510Z,3.00
2022-08-30T09:59:08.096Z,3.45
2022-08-30T10:00:17.766Z,3.60
2022-08-30T10:01:53.312Z,3.47
2022-08-30T10:02:58.280Z,3.22
2022-08-30T10:04:37.349Z,3.30
2022-08-30T10:05:48.627Z,3.40
2022-08-30T10:07:15.667Z,3.60
2022-08-30T10:08:36.406Z,3.47
2022-08-30T10:10:02.890Z,3.63
2022-08-30T10:11:12.279Z,3.33
2022-08-30T10:12:26.512Z,3.20
2022-08-30T10:14:08.129Z,3.60
2022-08-30T10:15:26.846Z,2.90
2022-08-30T10:16:33.545Z,3.20
2022-08-30T10:18:02.699Z,2.90
2022-08-30T10:19:23.371Z,3.00
2022-08-30T10:20:41.736Z,3.50
2022-08-30T10:21:52.244Z,3.33
2022-08-30T10:23:09.869Z,3.40
2022-08-30T10:24:21.025Z,2.88
2022-08-30T10:25:34.924Z,3.00
2022-08-30T10:26:51.696Z,2.97
2022-08-30T10:28:03.554Z,3.47
2022-08-30T10:29:16.093Z,3.15
2022-08-30T10:30:18.786Z,3.10
2022-08-30T10:31:29.087Z,2.90
2022-08-30T10:32:41.719Z,3.13
2022-08-30T10:33:52.572Z,3.17
2022-08-30T10:35:39.133Z,3.13
2022-08-30T10:36:47.024Z,3.13
2022-08-30T10:37:58.004Z,3.30
2022-08-30T10:39:02.390Z,3.20
2022-08-30T10:40:41.558Z,3.17
2022-08-30T10:41:54.997Z,3.15
2022-08-30T10:43:01.222Z,3.38
2022-08-30T10:44:18.524Z,3.08
2022-08-30T10:45:22.125Z,3.47
2022-08-30T10:47:01.340Z,3.55
2022-08-30T10:48:13.908Z,3.25
2022-08-30T10:49:21.281Z,3.30
2022-08-30T10:50:29.602Z,3.10
2022-08-30T10:51:35.832Z,3.20
2022-08-30T10:52:59.376Z,3.30
2022-08-30T10:54:18.574Z,3.50
2022-08-30T10:55:33.392Z,3.08
2022-08-30T10:56:40.489Z,3.00
2022-08-30T10:57:43.642Z,3.20
2022-08-30T10:58:46.868Z,3.35
2022-08-30T10:59:57.376Z,2.90
2022-08-30T11:01:12.400Z,3.30
2022-08-30T11:02:33.521Z,3.30
2022-08-30T11:04:09.216Z,2.85
2022-08-30T11:05:42.086Z,2.90
2022-08-30T11:07:02.599Z,3.50
2022-08-30T11:08:09.841Z,3.30
2022-08-30T11:09:52.573Z,3.20
2022-08-30T11:11:33.151Z,3.47
2022-08-30T11:12:49.137Z,3.42
2022-08-30T11:13:55.818Z,3.13
2022-08-30T11:15:11.208Z,3.13
2022-08-30T11:16:16.527Z,3.22
2022-08-30T11:17:35.713Z,3.20
2022-08-30T11:18:57.693Z,3.50
2022-08-30T11:20:02.608Z,3.72
2022-08-30T11:21:33.510Z,3.60
2022-08-30T11:22:39.266Z,3.33
2022-08-30T11:23:41.677Z,3.22
2022-08-30T11:25:10.171Z,3.47
2022-08-30T11:26:50.902Z,3.42
2022-08-30T11:27:59.000Z,3.35
2022-08-30T11:29:05.221Z,3.20
2022-08-30T11:30:27.423Z,3.33
2022-08-30T11:31:38.206Z,3.50
2022-08-30T11:33:00.670Z,3.28
2022-08-30T11:34:05.867Z,3.72
2022-08-30T11:35:11.187Z,3.53
2022-08-30T11:36:28.977Z,3.53
2022-08-30T11:37:43.103Z,3.40
2022-08-30T11:38:46.902Z,3.30
2022-08-30T11:39:49.302Z,3.30
2022-08-30T11:40:54.231Z,3.70
2022-08-30T11:42:29.525Z,4.03
2022-08-30T11:43:49.986Z,3.33
2022-08-30T11:44:52.620Z,3.50
2022-08-30T11:46:19.372Z,3.42
2022-08-30T11:47:49.813Z,3.17
2022-08-30T11:48:57.263Z,3.35
2022-08-30T11:50:13.396Z,3.30
2022-08-30T11:51:40.916Z,3.55
2022-08-30T11:53:14.285Z,3.70
2022-08-30T11:54:25.329Z,3.45
2022-08-30T11:55:52.057Z,3.45
2022-08-30T11:56:59.977Z,3.40
2022-08-30T11:58:27.087Z,3.33
2022-08-30T11:59:53.230Z,3.50
2022-08-30T12:01:51.025Z,3.40
2022-08-30T12:02:59.508Z,3.22
2022-08-30T12:04:16.980Z,3.47
2022-08-30T12:05:40.833Z,4.50
2022-08-30T12:06:54.425Z,4.35
2022-08-30T12:08:02.399Z,3.92
2022-08-30T12:09:08.159Z,3.47
2022-08-30T12:10:24.376Z,3.80
2022-08-30T12:11:33.210Z,3.65
2022-08-30T12:12:38.146Z,3.10
2022-08-30T12:13:42.816Z,3.20
2022-08-30T12:14:57.533Z,3.35
2022-08-30T12:16:05.569Z,3.85
2022-08-30T12:17:42.318Z,3.30
2022-08-30T12:19:00.093Z,3.53
2022-08-30T12:20:04.874Z,3.92
2022-08-30T12:21:20.263Z,3.50
2022-08-30T12:22:23.847Z,3.92
2022-08-30T12:23:56.969Z,3.75
2022-08-30T12:24:59.746Z,3.58
2022-08-30T12:26:10.970Z,3.50
2022-08-30T12:27:32.736Z,3.35
2022-08-30T12:28:35.273Z,3.85
2022-08-30T12:29:52.021Z,3.50
2022-08-30T12:30:54.427Z,3.70
2022-08-30T12:32:14.939Z,3.83
2022-08-30T12:33:36.569Z,3.88
2022-08-30T12:34:43.510Z,3.10
2022-08-30T12:35:45.820Z,3.75
2022-08-30T12:36:55.002Z,3.90
2022-08-30T12:38:05.875Z,3.92
2022-08-30T12:39:18.058Z,3.65
2022-08-30T12:40:23.189Z,3.28
2022-08-30T12:41:25.919Z,3.72
2022-08-30T12:42:31.579Z,3.58
2022-08-30T12:43:40.562Z,3.90
2022-08-30T12:44:45.244Z,3.38
2022-08-30T12:45:50.772Z,3.35
2022-08-30T12:47:00.288Z,3.88
2022-08-30T12:48:10.930Z,3.90
2022-08-30T12:49:15.817Z,3.60
2022-08-30T12:50:26.176Z,3.55
2022-08-30T12:51:35.367Z,3.53
2022-08-30T12:52:41.139Z,3.25
2022-08-30T12:53:47.038Z,3.80
2022-08-30T12:54:56.829Z,3.70
2022-08-30T12:56:07.170Z,3.90
2022-08-30T12:57:34.675Z,3.50
2022-08-30T12:58:43.504Z,3.60
2022-08-30T12:59:54.242Z,3.47
2022-08-30T13:01:28.671Z,3.67
2022-08-30T13:02:47.115Z,3.63
2022-08-30T13:04:01.145Z,3.65
2022-08-30T13:05:34.197Z,3.80
2022-08-30T13:06:42.247Z,3.95
2022-08-30T13:07:45.447Z,4.00
2022-08-30T13:08:51.722Z,3.63
2022-08-30T13:10:20.111Z,3.55
2022-08-30T13:11:22.551Z,3.40
2022-08-30T13:12:27.677Z,3.45
2022-08-30T13:13:45.672Z,3.60
2022-08-30T13:15:19.911Z,3.17
2022-08-30T13:16:26.734Z,3.13
2022-08-30T13:17:31.854Z,3.42
2022-08-30T13:18:34.099Z,3.40
2022-08-30T13:19:43.618Z,3.50
2022-08-30T13:20:47.983Z,3.55
2022-08-30T13:21:54.993Z,3.65
2022-08-30T13:23:06.861Z,3.22
2022-08-30T13:24:09.122Z,4.10
2022-08-30T13:25:11.845Z,3.38
2022-08-30T13:26:14.880Z,3.22
2022-08-30T13:27:26.756Z,3.38
2022-08-30T13:28:29.149Z,2.88
2022-08-30T13:29:32.022Z,3.40
2022-08-30T13:30:34.985Z,3.25
2022-08-30T13:31:37.731Z,3.20
2022-08-30T13:32:40.192Z,3.50
2022-08-30T13:33:45.862Z,3.40
2022-08-30T13:34:48.196Z,3.08
2022-08-30T13:35:50.521Z,3.35
2022-08-30T13:36:57.848Z,3.60
2022-08-30T13:38:01.862Z,3.38
2022-08-30T13:39:05.934Z,3.40
2022-08-30T13:40:13.877Z,3.10
2022-08-30T13:41:16.605Z,3.38
2022-08-30T13:42:34.682Z,3.38
2022-08-30T13:45:01.155Z,3.75
2022-08-30T13:46:03.654Z,2.92
2022-08-30T13:48:28.857Z,3.15
2022-08-30T13:49:43.477Z,3.28
2022-08-30T13:50:46.264Z,3.30
2022-08-30T13:52:18.445Z,3.40
2022-08-30T13:53:14.207Z,3.80
2022-08-30T13:54:16.688Z,3.35
2022-08-30T13:55:18.960Z,3.33
2022-08-30T13:56:24.198Z,3.15
2022-08-30T13:58:52.212Z,3.35
2022-08-30T13:59:55.154Z,3.30
2022-08-30T14:00:58.363Z,3.38
2022-08-30T14:02:10.676Z,3.47
2022-08-30T14:03:14.803Z,3.00
2022-08-30T14:04:17.187Z,3.40
2022-08-30T14:05:47.100Z,3.28
2022-08-30T14:08:06.723Z,3.90
2022-08-30T14:09:10.532Z,3.08
2022-08-30T14:10:31.355Z,2.95
2022-08-30T14:11:34.809Z,2.97
2022-08-30T14:12:53.059Z,3.17
2022-08-30T14:15:18.505Z,3.03
2022-08-30T14:16:28.269Z,3.42
2022-08-30T14:17:32.720Z,3.13
2022-08-30T14:18:35.505Z,3.38
2022-08-30T14:19:39.702Z,3.17
2022-08-30T14:20:41.974Z,2.90
2022-08-30T14:21:48.917Z,3.10
2022-08-30T14:22:51.734Z,3.33
2022-08-30T14:23:56.538Z,3.20
2022-08-30T14:25:01.355Z,4.10
2022-08-30T14:26:11.518Z,3.30
2022-08-30T14:27:13.799Z,3.35
2022-08-30T14:28:16.374Z,3.13
2022-08-30T14:29:23.108Z,3.40
2022-08-30T14:30:26.862Z,3.25
2022-08-30T14:31:30.207Z,2.40
2022-08-30T14:32:35.362Z,3.28
2022-08-30T14:33:37.661Z,2.90
2022-08-30T14:34:39.881Z,3.13
2022-08-30T14:35:42.261Z,2.88
2022-08-30T14:36:45.917Z,3.33
2022-08-30T14:37:50.558Z,3.20
2022-08-30T14:38:53.224Z,3.13
2022-08-30T14:39:55.463Z,3.10
2022-08-30T14:40:57.912Z,3.05
2022-08-30T14:42:03.402Z,3.20
2022-08-30T14:43:06.829Z,2.72
2022-08-30T14:44:09.051Z,3.35
2022-08-30T14:45:13.103Z,3.00
2022-08-30T14:46:15.391Z,3.20
2022-08-30T14:47:18.684Z,3.00
2022-08-30T14:48:20.988Z,3.00
2022-08-30T14:49:23.625Z,2.72
2022-08-30T14:50:25.897Z,2.92
2022-08-30T14:51:30.269Z,3.28
2022-08-30T14:52:32.659Z,3.63
2022-08-30T14:53:34.883Z,3.53
2022-08-30T14:54:39.177Z,3.40
2022-08-30T14:55:41.719Z,3.45
2022-08-30T14:56:44.145Z,2.95
2022-08-30T14:57:46.396Z,3.13
2022-08-30T14:58:51.476Z,3.30
2022-08-30T14:59:53.749Z,3.63
2022-08-30T15:00:56.097Z,2.88
2022-08-30T15:01:59.029Z,3.00
2022-08-30T15:03:01.273Z,3.00
2022-08-30T15:04:07.220Z,3.00
2022-08-30T15:05:09.834Z,3.35